sensor_id;sensor_type;location;lat;lon;timestamp;P1;durP1;ratioP1;P2;durP2;ratioP2
60492;SDS011;46341;51.290;-2.474;2022-09-24T00:01:21;2.42;;;0.68;;
60492;SDS011;46341;51.290;-2.474;2022-09-24T00:03:52;1.38;;;0.73;;
60492;SDS011;46341;51.290;-2.474;2022-09-24T00:06:19;3.20;;;0.63;;
60492;SDS011;46341;51.290;-2.474;2022-09-24T00:08:46;3.13;;;0.80;;
60492;SDS011;46341;51.290;-2.474;2022-09-24T00:13:40;2.70;;;1.20;;
60492;SDS011;46341;51.290;-2.474;2022-09-24T00:16:08;3.05;;;0.70;;
60492;SDS011;46341;51.290;-2.474;2022-09-24T00:18:35;1.27;;;0.60;;
60492;SDS011;46341;51.290;-2.474;2022-09-24T00:21:15;1.00;;;0.90;;
60492;SDS011;46341;51.290;-2.474;2022-09-24T00:23:42;3.65;;;0.95;;
60492;SDS011;46341;51.290;-2.474;2022-09-24T00:26:11;1.73;;;0.60;;
60492;SDS011;46341;51.290;-2.474;2022-09-24T00:28:57;1.77;;;0.80;;
60492;SDS011;46341;51.290;-2.474;2022-09-24T00:31:23;1.85;;;0.70;;
60492;SDS011;46341;51.290;-2.474;2022-09-24T00:33:50;2.47;;;1.03;;
60492;SDS011;46341;51.290;-2.474;2022-09-24T00:36:20;2.80;;;0.90;;
60492;SDS011;46341;51.290;-2.474;2022-09-24T00:38:48;3.70;;;1.08;;
60492;SDS011;46341;51.290;-2.474;2022-09-24T00:41:15;4.15;;;1.17;;
60492;SDS011;46341;51.290;-2.474;2022-09-24T00:43:42;2.13;;;0.85;;
60492;SDS011;46341;51.290;-2.474;2022-09-24T00:48:44;1.88;;;0.75;;
60492;SDS011;46341;51.290;-2.474;2022-09-24T00:51:12;1.67;;;0.65;;
60492;SDS011;46341;51.290;-2.474;2022-09-24T00:53:41;3.15;;;1.08;;
60492;SDS011;46341;51.290;-2.474;2022-09-24T00:58:35;1.80;;;0.77;;
60492;SDS011;46341;51.290;-2.474;2022-09-24T01:01:04;3.30;;;0.90;;
60492;SDS011;46341;51.290;-2.474;2022-09-24T01:03:33;7.35;;;1.40;;
60492;SDS011;46341;51.290;-2.474;2022-09-24T01:06:06;2.00;;;0.90;;
60492;SDS011;46341;51.290;-2.474;2022-09-24T01:08:33;1.15;;;0.80;;
60492;SDS011;46341;51.290;-2.474;2022-09-24T01:16:11;2.15;;;0.80;;
60492;SDS011;46341;51.290;-2.474;2022-09-24T01:18:50;1.92;;;0.80;;
60492;SDS011;46341;51.290;-2.474;2022-09-24T01:21:22;1.45;;;0.82;;
60492;SDS011;46341;51.290;-2.474;2022-09-24T01:31:49;2.75;;;0.98;;
60492;SDS011;46341;51.290;-2.474;2022-09-24T01:34:19;4.57;;;1.02;;
60492;SDS011;46341;51.290;-2.474;2022-09-24T01:36:47;2.58;;;0.88;;
60492;SDS011;46341;51.290;-2.474;2022-09-24T01:39:15;2.38;;;0.95;;
60492;SDS011;46341;51.290;-2.474;2022-09-24T01:41:42;1.98;;;0.90;;
60492;SDS011;46341;51.290;-2.474;2022-09-24T01:44:10;3.00;;;0.85;;
60492;SDS011;46341;51.290;-2.474;2022-09-24T01:46:37;3.15;;;0.80;;
60492;SDS011;46341;51.290;-2.474;2022-09-24T01:49:04;2.75;;;0.63;;
60492;SDS011;46341;51.290;-2.474;2022-09-24T01:51:49;2.13;;;0.98;;
60492;SDS011;46341;51.290;-2.474;2022-09-24T01:54:18;2.35;;;0.98;;
60492;SDS011;46341;51.290;-2.474;2022-09-24T02:00:21;2.97;;;1.05;;
60492;SDS011;46341;51.290;-2.474;2022-09-24T02:02:33;2.58;;;0.80;;
60492;SDS011;46341;51.290;-2.474;2022-09-24T02:05:06;2.78;;;1.10;;
60492;SDS011;46341;51.290;-2.474;2022-09-24T02:07:39;1.35;;;0.90;;
60492;SDS011;46341;51.290;-2.474;2022-09-24T02:10:13;2.03;;;1.20;;
60492;SDS011;46341;51.290;-2.474;2022-09-24T02:12:40;2.13;;;0.90;;
60492;SDS011;46341;51.290;-2.474;2022-09-24T02:15:15;1.48;;;1.17;;
60492;SDS011;46341;51.290;-2.474;2022-09-24T02:20:12;3.00;;;1.30;;
60492;SDS011;46341;51.290;-2.474;2022-09-24T02:25:07;2.78;;;1.45;;
60492;SDS011;46341;51.290;-2.474;2022-09-24T02:27:34;4.97;;;1.45;;
60492;SDS011;46341;51.290;-2.474;2022-09-24T02:30:00;3.83;;;1.35;;
60492;SDS011;46341;51.290;-2.474;2022-09-24T02:32:28;2.70;;;1.50;;
60492;SDS011;46341;51.290;-2.474;2022-09-24T02:34:57;2.67;;;1.33;;
60492;SDS011;46341;51.290;-2.474;2022-09-24T02:37:27;4.20;;;1.50;;
60492;SDS011;46341;51.290;-2.474;2022-09-24T02:39:54;2.33;;;1.67;;
60492;SDS011;46341;51.290;-2.474;2022-09-24T02:42:21;5.15;;;1.67;;
60492;SDS011;46341;51.290;-2.474;2022-09-24T02:44:47;2.70;;;1.40;;
60492;SDS011;46341;51.290;-2.474;2022-09-24T02:47:14;3.45;;;1.17;;
60492;SDS011;46341;51.290;-2.474;2022-09-24T02:49:40;3.42;;;1.27;;
60492;SDS011;46341;51.290;-2.474;2022-09-24T02:52:07;1.67;;;1.20;;
60492;SDS011;46341;51.290;-2.474;2022-09-24T02:54:33;2.58;;;1.10;;
60492;SDS011;46341;51.290;-2.474;2022-09-24T02:56:59;4.35;;;1.30;;
60492;SDS011;46341;51.290;-2.474;2022-09-24T02:59:26;2.08;;;1.02;;
60492;SDS011;46341;51.290;-2.474;2022-09-24T03:01:52;4.15;;;1.25;;
60492;SDS011;46341;51.290;-2.474;2022-09-24T03:04:19;3.08;;;1.60;;
60492;SDS011;46341;51.290;-2.474;2022-09-24T03:06:45;4.47;;;1.30;;
60492;SDS011;46341;51.290;-2.474;2022-09-24T03:09:11;2.67;;;1.38;;
60492;SDS011;46341;51.290;-2.474;2022-09-24T03:11:38;2.17;;;1.27;;
60492;SDS011;46341;51.290;-2.474;2022-09-24T03:14:05;1.97;;;1.20;;
60492;SDS011;46341;51.290;-2.474;2022-09-24T03:16:31;1.65;;;1.08;;
60492;SDS011;46341;51.290;-2.474;2022-09-24T03:18:58;1.05;;;0.95;;
60492;SDS011;46341;51.290;-2.474;2022-09-24T03:21:25;2.00;;;1.20;;
60492;SDS011;46341;51.290;-2.474;2022-09-24T03:23:51;1.83;;;1.17;;
60492;SDS011;46341;51.290;-2.474;2022-09-24T03:26:18;1.90;;;1.30;;
60492;SDS011;46341;51.290;-2.474;2022-09-24T03:28:44;2.00;;;1.63;;
60492;SDS011;46341;51.290;-2.474;2022-09-24T03:31:11;4.22;;;3.20;;
60492;SDS011;46341;51.290;-2.474;2022-09-24T03:33:39;4.25;;;2.95;;
60492;SDS011;46341;51.290;-2.474;2022-09-24T03:36:08;3.75;;;2.80;;
60492;SDS011;46341;51.290;-2.474;2022-09-24T03:41:01;4.05;;;2.80;;
60492;SDS011;46341;51.290;-2.474;2022-09-24T03:43:27;3.40;;;2.60;;
60492;SDS011;46341;51.290;-2.474;2022-09-24T03:45:54;4.22;;;2.78;;
60492;SDS011;46341;51.290;-2.474;2022-09-24T03:48:21;7.68;;;6.47;;
60492;SDS011;46341;51.290;-2.474;2022-09-24T03:50:48;18.08;;;16.27;;
60492;SDS011;46341;51.290;-2.474;2022-09-24T03:53:14;30.92;;;28.02;;
60492;SDS011;46341;51.290;-2.474;2022-09-24T03:55:51;29.90;;;27.20;;
60492;SDS011;46341;51.290;-2.474;2022-09-24T03:58:17;25.92;;;23.48;;
60492;SDS011;46341;51.290;-2.474;2022-09-24T04:00:44;22.77;;;20.70;;
60492;SDS011;46341;51.290;-2.474;2022-09-24T04:03:10;18.90;;;17.23;;
60492;SDS011;46341;51.290;-2.474;2022-09-24T04:05:37;13.65;;;12.35;;
60492;SDS011;46341;51.290;-2.474;2022-09-24T04:08:03;11.27;;;10.10;;
60492;SDS011;46341;51.290;-2.474;2022-09-24T04:10:32;5.88;;;5.32;;
60492;SDS011;46341;51.290;-2.474;2022-09-24T04:12:58;4.50;;;3.90;;
60492;SDS011;46341;51.290;-2.474;2022-09-24T04:15:25;3.55;;;3.25;;
60492;SDS011;46341;51.290;-2.474;2022-09-24T04:17:52;2.70;;;2.50;;
60492;SDS011;46341;51.290;-2.474;2022-09-24T04:20:20;3.63;;;2.10;;
60492;SDS011;46341;51.290;-2.474;2022-09-24T04:22:51;4.85;;;2.05;;
60492;SDS011;46341;51.290;-2.474;2022-09-24T04:25:19;2.67;;;1.85;;
60492;SDS011;46341;51.290;-2.474;2022-09-24T04:27:45;3.40;;;1.70;;
60492;SDS011;46341;51.290;-2.474;2022-09-24T04:30:13;4.78;;;1.70;;
60492;SDS011;46341;51.290;-2.474;2022-09-24T04:32:40;3.95;;;1.67;;
60492;SDS011;46341;51.290;-2.474;2022-09-24T04:35:06;2.40;;;1.90;;
60492;SDS011;46341;51.290;-2.474;2022-09-24T04:37:33;3.80;;;1.93;;
60492;SDS011;46341;51.290;-2.474;2022-09-24T04:40:00;5.97;;;1.88;;
60492;SDS011;46341;51.290;-2.474;2022-09-24T04:42:26;2.35;;;1.50;;
60492;SDS011;46341;51.290;-2.474;2022-09-24T04:44:52;2.55;;;1.40;;
60492;SDS011;46341;51.290;-2.474;2022-09-24T04:47:21;3.03;;;1.65;;
60492;SDS011;46341;51.290;-2.474;2022-09-24T04:49:51;4.55;;;1.45;;
60492;SDS011;46341;51.290;-2.474;2022-09-24T04:52:17;3.72;;;1.65;;
60492;SDS011;46341;51.290;-2.474;2022-09-24T04:54:44;3.30;;;1.67;;
60492;SDS011;46341;51.290;-2.474;2022-09-24T04:57:13;4.47;;;2.05;;
60492;SDS011;46341;51.290;-2.474;2022-09-24T04:59:39;9.75;;;2.28;;
60492;SDS011;46341;51.290;-2.474;2022-09-24T05:02:06;4.07;;;1.33;;
60492;SDS011;46341;51.290;-2.474;2022-09-24T05:04:35;2.65;;;1.45;;
60492;SDS011;46341;51.290;-2.474;2022-09-24T05:07:02;3.72;;;1.30;;
60492;SDS011;46341;51.290;-2.474;2022-09-24T05:09:29;3.70;;;1.80;;
60492;SDS011;46341;51.290;-2.474;2022-09-24T05:11:58;1.75;;;1.40;;
60492;SDS011;46341;51.290;-2.474;2022-09-24T05:14:25;2.58;;;1.30;;
60492;SDS011;46341;51.290;-2.474;2022-09-24T05:16:51;4.53;;;1.13;;
60492;SDS011;46341;51.290;-2.474;2022-09-24T05:19:18;2.85;;;1.50;;
60492;SDS011;46341;51.290;-2.474;2022-09-24T05:21:44;3.65;;;1.38;;
60492;SDS011;46341;51.290;-2.474;2022-09-24T05:24:11;1.27;;;1.03;;
60492;SDS011;46341;51.290;-2.474;2022-09-24T05:26:38;1.48;;;1.23;;
60492;SDS011;46341;51.290;-2.474;2022-09-24T05:29:22;3.15;;;1.20;;
60492;SDS011;46341;51.290;-2.474;2022-09-24T05:31:49;2.40;;;1.27;;
60492;SDS011;46341;51.290;-2.474;2022-09-24T05:34:15;3.35;;;1.15;;
60492;SDS011;46341;51.290;-2.474;2022-09-24T05:36:42;1.33;;;1.10;;
60492;SDS011;46341;51.290;-2.474;2022-09-24T05:39:09;2.83;;;1.20;;
60492;SDS011;46341;51.290;-2.474;2022-09-24T05:44:03;3.40;;;1.27;;
60492;SDS011;46341;51.290;-2.474;2022-09-24T05:46:30;5.40;;;1.60;;
60492;SDS011;46341;51.290;-2.474;2022-09-24T05:48:56;4.88;;;1.33;;
60492;SDS011;46341;51.290;-2.474;2022-09-24T05:51:23;3.20;;;1.33;;
60492;SDS011;46341;51.290;-2.474;2022-09-24T05:53:49;2.58;;;1.25;;
60492;SDS011;46341;51.290;-2.474;2022-09-24T05:56:16;2.20;;;0.90;;
60492;SDS011;46341;51.290;-2.474;2022-09-24T05:58:42;2.20;;;1.10;;
60492;SDS011;46341;51.290;-2.474;2022-09-24T06:01:08;2.65;;;1.23;;
60492;SDS011;46341;51.290;-2.474;2022-09-24T06:03:35;2.88;;;1.35;;
60492;SDS011;46341;51.290;-2.474;2022-09-24T06:06:01;2.17;;;1.15;;
60492;SDS011;46341;51.290;-2.474;2022-09-24T06:08:28;2.97;;;1.27;;
60492;SDS011;46341;51.290;-2.474;2022-09-24T06:10:59;3.00;;;1.30;;
60492;SDS011;46341;51.290;-2.474;2022-09-24T06:13:25;2.63;;;1.20;;
60492;SDS011;46341;51.290;-2.474;2022-09-24T06:15:51;5.45;;;1.40;;
60492;SDS011;46341;51.290;-2.474;2022-09-24T06:18:18;5.07;;;1.30;;
60492;SDS011;46341;51.290;-2.474;2022-09-24T06:20:44;3.85;;;1.30;;
60492;SDS011;46341;51.290;-2.474;2022-09-24T06:23:12;4.50;;;1.48;;
60492;SDS011;46341;51.290;-2.474;2022-09-24T06:25:39;3.05;;;1.17;;
60492;SDS011;46341;51.290;-2.474;2022-09-24T06:28:05;3.70;;;1.42;;
60492;SDS011;46341;51.290;-2.474;2022-09-24T06:30:32;3.38;;;1.25;;
60492;SDS011;46341;51.290;-2.474;2022-09-24T06:33:10;3.83;;;1.42;;
60492;SDS011;46341;51.290;-2.474;2022-09-24T06:35:37;7.93;;;1.65;;
60492;SDS011;46341;51.290;-2.474;2022-09-24T06:38:04;4.13;;;1.67;;
60492;SDS011;46341;51.290;-2.474;2022-09-24T06:40:31;4.18;;;1.77;;
60492;SDS011;46341;51.290;-2.474;2022-09-24T06:43:02;7.05;;;1.70;;
60492;SDS011;46341;51.290;-2.474;2022-09-24T06:45:29;6.47;;;1.92;;
60492;SDS011;46341;51.290;-2.474;2022-09-24T06:47:56;3.67;;;1.50;;
60492;SDS011;46341;51.290;-2.474;2022-09-24T06:50:23;2.50;;;1.30;;
60492;SDS011;46341;51.290;-2.474;2022-09-24T06:52:50;4.15;;;1.55;;
60492;SDS011;46341;51.290;-2.474;2022-09-24T06:55:17;7.25;;;2.50;;
60492;SDS011;46341;51.290;-2.474;2022-09-24T06:57:44;4.17;;;1.57;;
60492;SDS011;46341;51.290;-2.474;2022-09-24T07:00:11;5.17;;;1.50;;
60492;SDS011;46341;51.290;-2.474;2022-09-24T07:02:38;6.18;;;1.50;;
60492;SDS011;46341;51.290;-2.474;2022-09-24T07:05:05;3.20;;;1.20;;
60492;SDS011;46341;51.290;-2.474;2022-09-24T07:07:31;4.07;;;1.08;;
60492;SDS011;46341;51.290;-2.474;2022-09-24T07:09:59;5.55;;;1.45;;
60492;SDS011;46341;51.290;-2.474;2022-09-24T07:12:27;2.80;;;1.27;;
60492;SDS011;46341;51.290;-2.474;2022-09-24T07:14:54;7.05;;;1.50;;
60492;SDS011;46341;51.290;-2.474;2022-09-24T07:17:20;3.92;;;1.15;;
60492;SDS011;46341;51.290;-2.474;2022-09-24T07:19:47;4.32;;;1.30;;
60492;SDS011;46341;51.290;-2.474;2022-09-24T07:22:13;5.72;;;1.10;;
60492;SDS011;46341;51.290;-2.474;2022-09-24T07:24:39;3.28;;;1.13;;
60492;SDS011;46341;51.290;-2.474;2022-09-24T07:27:06;6.15;;;1.30;;
60492;SDS011;46341;51.290;-2.474;2022-09-24T07:29:33;5.40;;;1.55;;
60492;SDS011;46341;51.290;-2.474;2022-09-24T07:32:00;4.70;;;1.30;;
60492;SDS011;46341;51.290;-2.474;2022-09-24T07:34:27;4.03;;;1.23;;
60492;SDS011;46341;51.290;-2.474;2022-09-24T07:36:53;5.35;;;1.08;;
60492;SDS011;46341;51.290;-2.474;2022-09-24T07:39:21;4.10;;;1.23;;
60492;SDS011;46341;51.290;-2.474;2022-09-24T07:41:48;4.65;;;1.02;;
60492;SDS011;46341;51.290;-2.474;2022-09-24T07:44:17;7.30;;;1.10;;
60492;SDS011;46341;51.290;-2.474;2022-09-24T07:46:46;4.97;;;1.38;;
60492;SDS011;46341;51.290;-2.474;2022-09-24T07:49:12;4.70;;;1.00;;
60492;SDS011;46341;51.290;-2.474;2022-09-24T07:51:39;5.00;;;1.17;;
60492;SDS011;46341;51.290;-2.474;2022-09-24T07:54:05;5.85;;;1.10;;
60492;SDS011;46341;51.290;-2.474;2022-09-24T07:56:32;3.42;;;1.40;;
60492;SDS011;46341;51.290;-2.474;2022-09-24T07:58:58;4.90;;;1.20;;
60492;SDS011;46341;51.290;-2.474;2022-09-24T08:01:24;3.25;;;1.00;;
60492;SDS011;46341;51.290;-2.474;2022-09-24T08:03:51;3.38;;;1.00;;
60492;SDS011;46341;51.290;-2.474;2022-09-24T08:06:20;4.93;;;1.00;;
60492;SDS011;46341;51.290;-2.474;2022-09-24T08:08:50;6.03;;;1.10;;
60492;SDS011;46341;51.290;-2.474;2022-09-24T08:11:18;3.67;;;0.80;;
60492;SDS011;46341;51.290;-2.474;2022-09-24T08:13:45;3.83;;;0.93;;
60492;SDS011;46341;51.290;-2.474;2022-09-24T08:16:12;2.97;;;0.90;;
60492;SDS011;46341;51.290;-2.474;2022-09-24T08:18:39;5.78;;;1.30;;
60492;SDS011;46341;51.290;-2.474;2022-09-24T08:21:06;3.17;;;0.85;;
60492;SDS011;46341;51.290;-2.474;2022-09-24T08:23:34;3.53;;;0.80;;
60492;SDS011;46341;51.290;-2.474;2022-09-24T08:26:01;2.92;;;1.00;;
60492;SDS011;46341;51.290;-2.474;2022-09-24T08:28:28;6.30;;;0.93;;
60492;SDS011;46341;51.290;-2.474;2022-09-24T08:30:57;7.87;;;1.17;;
60492;SDS011;46341;51.290;-2.474;2022-09-24T08:33:26;3.10;;;0.93;;
60492;SDS011;46341;51.290;-2.474;2022-09-24T08:35:52;3.85;;;0.75;;
60492;SDS011;46341;51.290;-2.474;2022-09-24T08:38:18;3.63;;;0.90;;
60492;SDS011;46341;51.290;-2.474;2022-09-24T08:41:00;2.75;;;1.00;;
60492;SDS011;46341;51.290;-2.474;2022-09-24T08:46:11;3.35;;;1.00;;
60492;SDS011;46341;51.290;-2.474;2022-09-24T08:48:58;3.10;;;0.90;;
60492;SDS011;46341;51.290;-2.474;2022-09-24T08:51:26;4.85;;;1.20;;
60492;SDS011;46341;51.290;-2.474;2022-09-24T08:54:08;3.65;;;1.45;;
60492;SDS011;46341;51.290;-2.474;2022-09-24T08:56:36;4.20;;;0.98;;
60492;SDS011;46341;51.290;-2.474;2022-09-24T09:09:47;4.27;;;1.10;;
60492;SDS011;46341;51.290;-2.474;2022-09-24T09:12:36;5.35;;;0.95;;
60492;SDS011;46341;51.290;-2.474;2022-09-24T09:15:13;2.20;;;0.73;;
60492;SDS011;46341;51.290;-2.474;2022-09-24T09:20:26;3.05;;;0.85;;
60492;SDS011;46341;51.290;-2.474;2022-09-24T09:25:23;2.47;;;0.70;;
60492;SDS011;46341;51.290;-2.474;2022-09-24T09:28:12;2.10;;;0.68;;
60492;SDS011;46341;51.290;-2.474;2022-09-24T09:38:55;2.53;;;0.80;;
60492;SDS011;46341;51.290;-2.474;2022-09-24T09:41:37;1.85;;;0.40;;
60492;SDS011;46341;51.290;-2.474;2022-09-24T09:44:13;3.50;;;0.82;;
60492;SDS011;46341;51.290;-2.474;2022-09-24T09:46:42;3.43;;;1.17;;
60492;SDS011;46341;51.290;-2.474;2022-09-24T09:49:11;2.20;;;0.50;;
60492;SDS011;46341;51.290;-2.474;2022-09-24T09:51:40;2.08;;;0.60;;
60492;SDS011;46341;51.290;-2.474;2022-09-24T09:54:07;3.58;;;0.75;;
60492;SDS011;46341;51.290;-2.474;2022-09-24T09:56:35;2.20;;;0.63;;
60492;SDS011;46341;51.290;-2.474;2022-09-24T09:59:04;3.30;;;0.95;;
60492;SDS011;46341;51.290;-2.474;2022-09-24T10:01:33;2.55;;;0.80;;
60492;SDS011;46341;51.290;-2.474;2022-09-24T10:04:00;2.10;;;0.70;;
60492;SDS011;46341;51.290;-2.474;2022-09-24T10:06:31;4.20;;;0.88;;
60492;SDS011;46341;51.290;-2.474;2022-09-24T10:09:10;2.22;;;0.75;;
60492;SDS011;46341;51.290;-2.474;2022-09-24T10:11:37;2.67;;;0.50;;
60492;SDS011;46341;51.290;-2.474;2022-09-24T10:14:03;2.67;;;0.70;;
60492;SDS011;46341;51.290;-2.474;2022-09-24T10:16:34;2.90;;;0.63;;
60492;SDS011;46341;51.290;-2.474;2022-09-24T10:19:00;3.03;;;0.82;;
60492;SDS011;46341;51.290;-2.474;2022-09-24T10:21:33;1.92;;;0.60;;
60492;SDS011;46341;51.290;-2.474;2022-09-24T10:24:05;1.42;;;0.60;;
60492;SDS011;46341;51.290;-2.474;2022-09-24T10:26:37;2.03;;;0.50;;
60492;SDS011;46341;51.290;-2.474;2022-09-24T10:29:23;2.20;;;0.65;;
60492;SDS011;46341;51.290;-2.474;2022-09-24T10:32:13;3.03;;;0.68;;
60492;SDS011;46341;51.290;-2.474;2022-09-24T10:34:41;3.08;;;0.82;;
60492;SDS011;46341;51.290;-2.474;2022-09-24T10:37:14;4.40;;;0.70;;
60492;SDS011;46341;51.290;-2.474;2022-09-24T10:39:41;1.98;;;0.47;;
60492;SDS011;46341;51.290;-2.474;2022-09-24T10:42:23;1.80;;;0.60;;
60492;SDS011;46341;51.290;-2.474;2022-09-24T10:44:50;3.05;;;0.65;;
60492;SDS011;46341;51.290;-2.474;2022-09-24T10:52:21;1.70;;;0.47;;
60492;SDS011;46341;51.290;-2.474;2022-09-24T10:54:57;2.38;;;0.50;;
60492;SDS011;46341;51.290;-2.474;2022-09-24T10:57:36;1.85;;;0.60;;
60492;SDS011;46341;51.290;-2.474;2022-09-24T11:00:14;2.08;;;0.60;;
60492;SDS011;46341;51.290;-2.474;2022-09-24T11:05:29;2.70;;;0.70;;
60492;SDS011;46341;51.290;-2.474;2022-09-24T11:10:53;3.33;;;0.80;;
60492;SDS011;46341;51.290;-2.474;2022-09-24T11:21:00;2.35;;;0.63;;
60492;SDS011;46341;51.290;-2.474;2022-09-24T11:26:22;2.42;;;0.68;;
60492;SDS011;46341;51.290;-2.474;2022-09-24T11:31:20;2.72;;;0.60;;
60492;SDS011;46341;51.290;-2.474;2022-09-24T11:39:02;2.13;;;0.50;;
60492;SDS011;46341;51.290;-2.474;2022-09-24T11:56:47;1.33;;;0.40;;
60492;SDS011;46341;51.290;-2.474;2022-09-24T12:01:49;3.08;;;0.90;;
60492;SDS011;46341;51.290;-2.474;2022-09-24T12:04:26;1.70;;;0.90;;
60492;SDS011;46341;51.290;-2.474;2022-09-24T12:06:56;1.42;;;0.65;;
60492;SDS011;46341;51.290;-2.474;2022-09-24T12:09:34;2.38;;;0.55;;
60492;SDS011;46341;51.290;-2.474;2022-09-24T12:12:07;1.38;;;0.60;;
60492;SDS011;46341;51.290;-2.474;2022-09-24T12:14:42;3.80;;;0.90;;
60492;SDS011;46341;51.290;-2.474;2022-09-24T12:17:15;1.45;;;0.50;;
60492;SDS011;46341;51.290;-2.474;2022-09-24T12:19:47;2.35;;;0.40;;
60492;SDS011;46341;51.290;-2.474;2022-09-24T12:22:16;1.38;;;0.40;;
60492;SDS011;46341;51.290;-2.474;2022-09-24T12:24:53;0.85;;;0.57;;
60492;SDS011;46341;51.290;-2.474;2022-09-24T12:27:41;1.88;;;0.88;;
60492;SDS011;46341;51.290;-2.474;2022-09-24T12:33:08;1.80;;;0.80;;
60492;SDS011;46341;51.290;-2.474;2022-09-24T12:44:12;1.92;;;0.50;;
60492;SDS011;46341;51.290;-2.474;2022-09-24T12:46:49;2.05;;;0.70;;
60492;SDS011;46341;51.290;-2.474;2022-09-24T12:51:46;2.05;;;0.70;;
60492;SDS011;46341;51.290;-2.474;2022-09-24T12:54:29;2.00;;;0.40;;
60492;SDS011;46341;51.290;-2.474;2022-09-24T12:59:49;1.55;;;0.75;;
60492;SDS011;46341;51.290;-2.474;2022-09-24T13:07:31;2.40;;;0.50;;
60492;SDS011;46341;51.290;-2.474;2022-09-24T13:12:43;1.52;;;0.43;;
60492;SDS011;46341;51.290;-2.474;2022-09-24T13:20:39;1.33;;;0.60;;
60492;SDS011;46341;51.290;-2.474;2022-09-24T13:26:00;1.20;;;0.32;;
60492;SDS011;46341;51.290;-2.474;2022-09-24T13:28:37;2.10;;;0.40;;
60492;SDS011;46341;51.290;-2.474;2022-09-24T13:31:17;1.85;;;0.50;;
60492;SDS011;46341;51.290;-2.474;2022-09-24T13:33:51;1.92;;;0.60;;
60492;SDS011;46341;51.290;-2.474;2022-09-24T13:46:43;1.35;;;0.47;;
60492;SDS011;46341;51.290;-2.474;2022-09-24T13:49:19;1.27;;;0.30;;
60492;SDS011;46341;51.290;-2.474;2022-09-24T13:51:51;0.63;;;0.30;;
60492;SDS011;46341;51.290;-2.474;2022-09-24T13:54:23;1.95;;;0.50;;
60492;SDS011;46341;51.290;-2.474;2022-09-24T13:57:08;1.88;;;0.45;;
60492;SDS011;46341;51.290;-2.474;2022-09-24T13:59:36;1.20;;;0.38;;
60492;SDS011;46341;51.290;-2.474;2022-09-24T14:02:02;1.98;;;0.50;;
60492;SDS011;46341;51.290;-2.474;2022-09-24T14:04:29;2.28;;;0.50;;
60492;SDS011;46341;51.290;-2.474;2022-09-24T14:06:56;0.80;;;0.40;;
60492;SDS011;46341;51.290;-2.474;2022-09-24T14:09:24;3.22;;;0.60;;
60492;SDS011;46341;51.290;-2.474;2022-09-24T14:11:53;1.33;;;0.20;;
60492;SDS011;46341;51.290;-2.474;2022-09-24T14:14:21;1.70;;;0.40;;
60492;SDS011;46341;51.290;-2.474;2022-09-24T14:16:52;1.60;;;0.38;;
60492;SDS011;46341;51.290;-2.474;2022-09-24T14:19:21;0.32;;;0.20;;
60492;SDS011;46341;51.290;-2.474;2022-09-24T14:21:51;0.32;;;0.20;;
60492;SDS011;46341;51.290;-2.474;2022-09-24T14:29:17;1.42;;;0.40;;
60492;SDS011;46341;51.290;-2.474;2022-09-24T14:31:46;1.35;;;0.40;;
60492;SDS011;46341;51.290;-2.474;2022-09-24T14:37:23;3.35;;;0.65;;
60492;SDS011;46341;51.290;-2.474;2022-09-24T14:39:50;0.73;;;0.40;;
60492;SDS011;46341;51.290;-2.474;2022-09-24T14:44:51;1.98;;;1.00;;
60492;SDS011;46341;51.290;-2.474;2022-09-24T14:47:22;2.28;;;0.82;;
60492;SDS011;46341;51.290;-2.474;2022-09-24T14:49:49;1.92;;;1.10;;
60492;SDS011;46341;51.290;-2.474;2022-09-24T14:52:32;2.63;;;1.20;;
60492;SDS011;46341;51.290;-2.474;2022-09-24T14:55:18;0.75;;;0.75;;
60492;SDS011;46341;51.290;-2.474;2022-09-24T14:57:46;3.17;;;0.60;;
60492;SDS011;46341;51.290;-2.474;2022-09-24T15:02:46;1.63;;;0.60;;
60492;SDS011;46341;51.290;-2.474;2022-09-24T15:05:15;0.98;;;0.50;;
60492;SDS011;46341;51.290;-2.474;2022-09-24T15:07:41;0.82;;;0.40;;
60492;SDS011;46341;51.290;-2.474;2022-09-24T15:10:18;3.60;;;0.40;;
60492;SDS011;46341;51.290;-2.474;2022-09-24T15:12:47;1.08;;;0.30;;
60492;SDS011;46341;51.290;-2.474;2022-09-24T15:22:32;0.52;;;0.40;;
60492;SDS011;46341;51.290;-2.474;2022-09-24T15:24:59;1.48;;;0.50;;
60492;SDS011;46341;51.290;-2.474;2022-09-24T15:27:37;1.70;;;0.50;;
60492;SDS011;46341;51.290;-2.474;2022-09-24T15:32:30;0.80;;;0.40;;
60492;SDS011;46341;51.290;-2.474;2022-09-24T15:34:57;1.05;;;0.30;;
60492;SDS011;46341;51.290;-2.474;2022-09-24T15:37:25;0.70;;;0.28;;
60492;SDS011;46341;51.290;-2.474;2022-09-24T15:39:55;0.75;;;0.30;;
60492;SDS011;46341;51.290;-2.474;2022-09-24T15:42:22;1.50;;;0.30;;
60492;SDS011;46341;51.290;-2.474;2022-09-24T15:44:49;0.52;;;0.20;;
60492;SDS011;46341;51.290;-2.474;2022-09-24T15:47:16;2.47;;;0.28;;
60492;SDS011;46341;51.290;-2.474;2022-09-24T15:49:43;0.82;;;0.32;;
60492;SDS011;46341;51.290;-2.474;2022-09-24T15:54:36;1.20;;;0.43;;
60492;SDS011;46341;51.290;-2.474;2022-09-24T15:57:02;2.00;;;0.40;;
60492;SDS011;46341;51.290;-2.474;2022-09-24T15:59:29;1.40;;;0.43;;
60492;SDS011;46341;51.290;-2.474;2022-09-24T16:01:57;1.27;;;0.37;;
60492;SDS011;46341;51.290;-2.474;2022-09-24T16:04:24;0.63;;;0.22;;
60492;SDS011;46341;51.290;-2.474;2022-09-24T16:06:51;1.47;;;0.47;;
60492;SDS011;46341;51.290;-2.474;2022-09-24T16:09:17;1.43;;;0.40;;
60492;SDS011;46341;51.290;-2.474;2022-09-24T16:11:43;1.00;;;0.40;;
60492;SDS011;46341;51.290;-2.474;2022-09-24T16:14:10;0.65;;;0.28;;
60492;SDS011;46341;51.290;-2.474;2022-09-24T16:16:37;2.33;;;0.60;;
60492;SDS011;46341;51.290;-2.474;2022-09-24T16:19:03;1.38;;;0.40;;
60492;SDS011;46341;51.290;-2.474;2022-09-24T16:21:32;3.25;;;0.60;;
60492;SDS011;46341;51.290;-2.474;2022-09-24T16:23:58;0.70;;;0.50;;
60492;SDS011;46341;51.290;-2.474;2022-09-24T16:28:52;1.63;;;0.40;;
60492;SDS011;46341;51.290;-2.474;2022-09-24T16:31:18;0.90;;;0.30;;
60492;SDS011;46341;51.290;-2.474;2022-09-24T16:33:45;1.60;;;0.30;;
60492;SDS011;46341;51.290;-2.474;2022-09-24T16:36:11;2.28;;;0.50;;
60492;SDS011;46341;51.290;-2.474;2022-09-24T16:38:38;1.17;;;0.40;;
60492;SDS011;46341;51.290;-2.474;2022-09-24T16:41:05;1.20;;;0.60;;
60492;SDS011;46341;51.290;-2.474;2022-09-24T16:43:31;1.90;;;0.60;;
60492;SDS011;46341;51.290;-2.474;2022-09-24T16:46:02;0.95;;;0.30;;
60492;SDS011;46341;51.290;-2.474;2022-09-24T16:48:29;0.73;;;0.30;;
60492;SDS011;46341;51.290;-2.474;2022-09-24T16:51:09;0.93;;;0.30;;
60492;SDS011;46341;51.290;-2.474;2022-09-24T16:53:36;1.30;;;0.40;;
60492;SDS011;46341;51.290;-2.474;2022-09-24T16:58:33;0.93;;;0.28;;
60492;SDS011;46341;51.290;-2.474;2022-09-24T17:01:02;1.02;;;0.50;;
60492;SDS011;46341;51.290;-2.474;2022-09-24T17:03:29;0.70;;;0.30;;
60492;SDS011;46341;51.290;-2.474;2022-09-24T17:05:55;2.10;;;0.30;;
60492;SDS011;46341;51.290;-2.474;2022-09-24T17:08:22;0.68;;;0.20;;
60492;SDS011;46341;51.290;-2.474;2022-09-24T17:10:48;1.55;;;0.38;;
60492;SDS011;46341;51.290;-2.474;2022-09-24T17:13:17;1.17;;;0.40;;
60492;SDS011;46341;51.290;-2.474;2022-09-24T17:15:44;0.63;;;0.40;;
60492;SDS011;46341;51.290;-2.474;2022-09-24T17:18:10;0.30;;;0.15;;
60492;SDS011;46341;51.290;-2.474;2022-09-24T17:20:36;1.65;;;0.50;;
60492;SDS011;46341;51.290;-2.474;2022-09-24T17:23:03;0.70;;;0.20;;
60492;SDS011;46341;51.290;-2.474;2022-09-24T17:25:29;1.10;;;0.20;;
60492;SDS011;46341;51.290;-2.474;2022-09-24T17:27:55;1.20;;;0.30;;
60492;SDS011;46341;51.290;-2.474;2022-09-24T17:30:22;2.03;;;0.30;;
60492;SDS011;46341;51.290;-2.474;2022-09-24T17:32:48;1.23;;;0.30;;
60492;SDS011;46341;51.290;-2.474;2022-09-24T17:35:14;1.63;;;0.47;;
60492;SDS011;46341;51.290;-2.474;2022-09-24T17:37:41;0.75;;;0.50;;
60492;SDS011;46341;51.290;-2.474;2022-09-24T17:40:07;1.92;;;0.60;;
60492;SDS011;46341;51.290;-2.474;2022-09-24T17:42:34;1.13;;;0.67;;
60492;SDS011;46341;51.290;-2.474;2022-09-24T17:45:00;0.82;;;0.40;;